createdAt,value
2023-10-23T00:01:56.721Z,2.63
2023-10-23T00:04:23.203Z,3.57
2023-10-23T00:06:50.161Z,2.87
2023-10-23T00:09:16.611Z,3.43
2023-10-23T00:11:42.967Z,3.00
2023-10-23T00:14:10.043Z,4.40
2023-10-23T00:16:36.529Z,3.63
2023-10-23T00:19:03.153Z,3.37
2023-10-23T00:21:29.557Z,3.57
2023-10-23T00:23:56.145Z,3.10
2023-10-23T00:26:22.587Z,4.93
2023-10-23T00:28:49.149Z,4.73
2023-10-23T00:31:15.764Z,3.47
2023-10-23T00:33:46.104Z,6.67
2023-10-23T00:36:12.931Z,4.83
2023-10-23T00:38:39.255Z,3.10
2023-10-23T00:41:05.776Z,5.00
2023-10-23T00:43:32.132Z,3.60
2023-10-23T00:46:02.158Z,3.60
2023-10-23T00:48:29.046Z,4.23
2023-10-23T00:51:00.327Z,5.13
2023-10-23T00:53:30.355Z,2.60
2023-10-23T00:55:58.444Z,3.10
2023-10-23T00:58:28.708Z,3.90
2023-10-23T01:00:56.544Z,4.10
2023-10-23T01:03:23.154Z,2.47
2023-10-23T01:05:50.018Z,4.47
2023-10-23T01:08:16.468Z,2.87
2023-10-23T01:10:43.980Z,5.17
2023-10-23T01:13:10.907Z,5.17
2023-10-23T01:15:37.456Z,2.93
2023-10-23T01:18:04.335Z,4.47
2023-10-23T01:20:32.276Z,4.33
2023-10-23T01:22:59.351Z,2.87
2023-10-23T01:25:26.943Z,2.83
2023-10-23T01:27:54.087Z,2.93
2023-10-23T01:30:20.833Z,2.40
2023-10-23T01:32:47.378Z,3.93
2023-10-23T01:35:14.163Z,3.90
2023-10-23T01:37:43.138Z,2.83
2023-10-23T01:40:09.951Z,2.60
2023-10-23T01:42:37.659Z,4.73
2023-10-23T01:45:04.301Z,3.17
2023-10-23T01:47:31.380Z,2.53
2023-10-23T01:49:58.921Z,3.40
2023-10-23T01:52:25.359Z,4.30
2023-10-23T01:54:52.435Z,4.77
2023-10-23T01:57:18.865Z,3.83
2023-10-23T01:59:46.762Z,4.80
2023-10-23T02:02:13.166Z,3.53
2023-10-23T02:04:42.961Z,3.77
2023-10-23T02:07:09.522Z,5.07
2023-10-23T02:09:35.850Z,4.20
2023-10-23T02:12:02.930Z,2.83
2023-10-23T02:14:29.748Z,2.27
2023-10-23T02:16:56.166Z,3.00
2023-10-23T02:19:23.267Z,6.77
2023-10-23T02:21:52.802Z,2.47
2023-10-23T02:24:20.811Z,3.23
2023-10-23T02:26:48.236Z,2.90
2023-10-23T02:29:14.655Z,2.57
2023-10-23T02:31:41.142Z,4.60
2023-10-23T02:34:07.593Z,2.97
2023-10-23T02:36:34.231Z,4.77
2023-10-23T02:39:00.825Z,6.73
2023-10-23T02:41:33.517Z,4.50
2023-10-23T02:44:00.027Z,3.93
2023-10-23T02:46:26.605Z,3.70
2023-10-23T02:48:53.123Z,3.40
2023-10-23T02:51:19.540Z,3.57
2023-10-23T02:53:46.143Z,4.70
2023-10-23T02:56:13.269Z,5.00
2023-10-23T02:58:39.841Z,4.43
2023-10-23T03:01:20.969Z,4.93
2023-10-23T03:03:50.233Z,5.23
2023-10-23T03:06:17.153Z,3.47
2023-10-23T03:08:43.922Z,4.77
2023-10-23T03:11:10.992Z,3.23
2023-10-23T03:13:37.409Z,4.63
2023-10-23T03:16:05.546Z,5.07
2023-10-23T03:18:34.301Z,5.30
2023-10-23T03:21:01.328Z,4.57
2023-10-23T03:23:34.434Z,4.70
2023-10-23T03:26:02.705Z,4.87
2023-10-23T03:28:29.350Z,6.73
2023-10-23T03:30:56.787Z,4.60
2023-10-23T03:33:23.326Z,3.03
2023-10-23T03:35:49.673Z,6.20
2023-10-23T03:38:16.249Z,5.37
2023-10-23T03:40:42.669Z,6.87
2023-10-23T03:43:09.812Z,4.80
2023-10-23T03:45:37.125Z,6.30
2023-10-23T03:48:03.735Z,5.03
2023-10-23T03:50:30.449Z,4.70
2023-10-23T03:52:56.948Z,3.40
2023-10-23T03:55:23.399Z,3.43
2023-10-23T03:57:49.895Z,5.60
2023-10-23T04:00:16.530Z,4.43
2023-10-23T04:02:44.473Z,4.00
2023-10-23T04:05:10.872Z,5.43
2023-10-23T04:07:37.447Z,5.07
2023-10-23T04:10:06.826Z,7.37
2023-10-23T04:12:35.679Z,5.43
2023-10-23T04:15:02.124Z,4.73
2023-10-23T04:17:28.468Z,4.80
2023-10-23T04:19:55.088Z,6.20
2023-10-23T04:22:21.428Z,6.77
2023-10-23T04:24:49.709Z,5.20
2023-10-23T04:27:18.352Z,3.97
2023-10-23T04:29:44.721Z,3.07
2023-10-23T04:32:11.292Z,3.37
2023-10-23T04:34:37.736Z,3.30
2023-10-23T04:37:04.694Z,3.53
2023-10-23T04:39:31.076Z,3.17
2023-10-23T04:41:57.638Z,3.83
2023-10-23T04:44:24.334Z,3.83
2023-10-23T04:46:50.914Z,5.03
2023-10-23T04:49:17.482Z,3.70
2023-10-23T04:51:43.871Z,4.57
2023-10-23T04:54:10.813Z,3.33
2023-10-23T04:56:37.170Z,3.00
2023-10-23T04:59:03.721Z,3.60
2023-10-23T05:01:30.430Z,3.30
2023-10-23T05:03:57.023Z,5.23
2023-10-23T05:06:29.988Z,3.70
2023-10-23T05:08:57.809Z,3.83
2023-10-23T05:11:24.304Z,3.53
2023-10-23T05:13:51.217Z,3.80
2023-10-23T05:16:18.678Z,4.40
2023-10-23T05:18:45.574Z,3.40
2023-10-23T05:21:13.023Z,4.10
2023-10-23T05:23:40.258Z,3.90
2023-10-23T05:26:09.251Z,5.57
2023-10-23T05:28:35.882Z,4.77
2023-10-23T05:31:03.981Z,4.80
2023-10-23T05:33:30.772Z,5.93
2023-10-23T05:36:18.792Z,4.47
2023-10-23T05:38:45.220Z,4.47
2023-10-23T05:41:12.133Z,4.87
2023-10-23T05:43:40.011Z,7.20
2023-10-23T05:46:06.811Z,4.80
2023-10-23T05:48:33.332Z,6.13
2023-10-23T05:51:06.258Z,4.70
2023-10-23T05:53:33.024Z,4.93
2023-10-23T05:56:06.217Z,4.73
2023-10-23T05:58:33.342Z,5.17
2023-10-23T06:01:09.513Z,4.80
2023-10-23T06:03:36.553Z,4.43
2023-10-23T06:06:06.109Z,5.13
2023-10-23T06:08:32.846Z,3.97
2023-10-23T06:10:59.361Z,4.70
2023-10-23T06:13:25.853Z,5.97
2023-10-23T06:15:52.690Z,7.33
2023-10-23T06:18:19.597Z,8.57
2023-10-23T06:20:46.034Z,8.70
2023-10-23T06:23:12.490Z,9.03
2023-10-23T06:25:38.968Z,5.10
2023-10-23T06:28:05.467Z,5.80
2023-10-23T06:30:31.943Z,6.17
2023-10-23T06:32:58.651Z,7.40
2023-10-23T06:35:25.458Z,8.03
2023-10-23T06:37:52.027Z,9.67
2023-10-23T06:40:18.818Z,9.80
2023-10-23T06:42:45.237Z,7.60
2023-10-23T06:45:14.368Z,9.70
2023-10-23T06:47:40.781Z,12.53
2023-10-23T06:50:08.080Z,9.00
2023-10-23T06:52:34.527Z,10.93
2023-10-23T06:55:00.824Z,9.50
2023-10-23T06:57:27.229Z,7.63
2023-10-23T06:59:55.967Z,14.53
2023-10-23T07:02:22.806Z,7.67
2023-10-23T07:04:49.384Z,10.33
2023-10-23T07:07:28.491Z,12.00
2023-10-23T07:10:00.362Z,10.23
2023-10-23T07:12:27.688Z,9.67
2023-10-23T07:14:56.820Z,7.40
2023-10-23T07:17:23.324Z,10.43
2023-10-23T07:19:50.636Z,8.77
2023-10-23T07:22:17.577Z,11.77
2023-10-23T07:24:45.373Z,10.43
2023-10-23T07:27:16.122Z,9.77
2023-10-23T07:29:46.312Z,11.47
2023-10-23T07:32:13.142Z,16.80
2023-10-23T07:34:39.478Z,11.90
2023-10-23T07:37:08.972Z,10.33
2023-10-23T07:39:36.493Z,11.67
2023-10-23T07:42:04.193Z,17.13
2023-10-23T07:44:30.660Z,16.00
2023-10-23T07:46:57.215Z,13.80
2023-10-23T07:49:24.954Z,14.27
2023-10-23T07:51:51.877Z,19.27
2023-10-23T07:54:20.107Z,15.83
2023-10-23T07:56:49.033Z,11.90
2023-10-23T07:59:15.701Z,10.97
2023-10-23T08:01:42.200Z,12.70
2023-10-23T08:04:08.757Z,14.57
2023-10-23T08:06:35.264Z,11.67
2023-10-23T08:09:01.722Z,14.93
2023-10-23T08:11:28.043Z,13.40
2023-10-23T08:13:54.501Z,13.03
2023-10-23T08:16:20.901Z,13.57
2023-10-23T08:18:47.572Z,15.33
2023-10-23T08:21:15.842Z,15.57
2023-10-23T08:23:43.488Z,19.90
2023-10-23T08:26:10.694Z,16.17
2023-10-23T08:31:16.661Z,15.40
2023-10-23T08:33:51.913Z,17.63
2023-10-23T08:36:19.214Z,17.83
2023-10-23T08:38:45.580Z,17.60
2023-10-23T08:41:12.240Z,19.03
2023-10-23T08:43:39.735Z,20.77
2023-10-23T08:46:09.184Z,20.90
2023-10-23T08:48:37.994Z,19.40
2023-10-23T08:51:07.018Z,21.77
2023-10-23T08:53:34.801Z,17.67
2023-10-23T08:56:05.583Z,23.03
2023-10-23T08:58:33.648Z,25.83
2023-10-23T09:01:00.172Z,26.37
2023-10-23T09:04:04.696Z,26.37
2023-10-23T09:06:17.053Z,26.10
2023-10-23T09:08:43.739Z,25.47
2023-10-23T09:11:10.095Z,29.20
2023-10-23T09:13:39.663Z,22.07
2023-10-23T09:16:07.709Z,24.73
2023-10-23T09:18:34.489Z,21.77
2023-10-23T09:21:01.109Z,23.33
2023-10-23T09:23:28.747Z,27.70
2023-10-23T09:25:59.374Z,25.60
2023-10-23T09:28:29.305Z,26.80
2023-10-23T09:30:55.866Z,30.90
2023-10-23T09:33:23.288Z,28.50
2023-10-23T09:35:50.481Z,30.57
2023-10-23T09:38:16.850Z,31.87
2023-10-23T09:40:46.727Z,35.87
2023-10-23T09:43:14.821Z,27.30
2023-10-23T09:45:41.670Z,30.37
2023-10-23T09:48:09.297Z,30.33
2023-10-23T09:50:36.217Z,23.53
2023-10-23T09:53:04.886Z,27.37
2023-10-23T09:55:33.375Z,32.33
2023-10-23T09:58:01.446Z,28.87
2023-10-23T10:00:28.360Z,30.80
2023-10-23T10:02:55.712Z,26.20
2023-10-23T10:05:26.342Z,25.67
2023-10-23T10:08:00.244Z,25.57
2023-10-23T10:10:29.619Z,27.13
2023-10-23T10:12:56.978Z,31.97
2023-10-23T10:15:24.016Z,31.03
2023-10-23T10:17:53.195Z,29.00
2023-10-23T10:20:23.017Z,30.00
2023-10-23T10:23:05.507Z,28.77
2023-10-23T10:25:32.958Z,29.47
2023-10-23T10:28:00.184Z,34.40
2023-10-23T10:30:43.960Z,36.10
2023-10-23T10:34:19.610Z,30.53
2023-10-23T10:36:04.507Z,33.67
2023-10-23T10:38:32.240Z,32.87
2023-10-23T10:41:19.152Z,31.97
2023-10-23T10:43:52.013Z,26.77
2023-10-23T10:46:22.591Z,38.17
2023-10-23T10:48:50.253Z,31.57
2023-10-23T10:51:20.546Z,30.10
2023-10-23T10:53:47.862Z,40.37
2023-10-23T10:56:14.311Z,38.13
2023-10-23T10:58:43.261Z,38.07
2023-10-23T11:01:10.122Z,34.10
2023-10-23T11:03:38.250Z,31.10
2023-10-23T11:06:08.461Z,38.70
2023-10-23T11:08:35.729Z,48.07
2023-10-23T11:11:02.804Z,40.50
2023-10-23T11:13:29.192Z,38.80
2023-10-23T11:15:56.435Z,37.13
2023-10-23T11:18:23.252Z,46.20
2023-10-23T11:20:53.898Z,54.00
2023-10-23T11:23:23.060Z,56.47
2023-10-23T11:25:50.561Z,59.83
2023-10-23T11:28:18.065Z,61.73
2023-10-23T11:30:45.814Z,64.67
2023-10-23T11:33:13.303Z,53.53
2023-10-23T11:35:41.743Z,61.47
2023-10-23T11:38:23.668Z,56.57
2023-10-23T11:40:50.089Z,57.77
2023-10-23T11:43:17.289Z,53.93
2023-10-23T11:45:46.684Z,54.47
2023-10-23T11:48:13.730Z,60.13
2023-10-23T11:50:40.360Z,59.03
2023-10-23T11:53:06.990Z,53.87
2023-10-23T11:55:33.855Z,49.47
2023-10-23T11:58:00.338Z,55.60
2023-10-23T12:00:27.075Z,47.00
2023-10-23T12:02:53.582Z,49.23
2023-10-23T12:05:23.344Z,40.53
2023-10-23T12:07:56.543Z,43.47
2023-10-23T12:10:25.849Z,42.40
2023-10-23T12:12:53.892Z,52.60
2023-10-23T12:15:20.606Z,41.57
2023-10-23T12:17:47.045Z,43.67
2023-10-23T12:20:15.546Z,51.90
2023-10-23T12:22:45.885Z,37.00
2023-10-23T12:25:12.867Z,45.23
2023-10-23T12:27:40.291Z,44.10
2023-10-23T12:30:09.443Z,49.53
2023-10-23T12:33:15.280Z,47.13
2023-10-23T12:35:23.678Z,50.80
2023-10-23T12:37:52.788Z,43.33
2023-10-23T12:40:19.159Z,40.67
2023-10-23T12:42:46.051Z,37.93
2023-10-23T12:45:13.752Z,40.73
2023-10-23T12:47:40.400Z,43.40
2023-10-23T12:50:09.312Z,37.93
2023-10-23T12:52:36.978Z,38.00
2023-10-23T12:55:05.390Z,45.17
2023-10-23T12:57:32.582Z,38.00
2023-10-23T12:59:58.932Z,38.33
2023-10-23T13:02:25.362Z,40.83
2023-10-23T13:04:52.465Z,37.70
2023-10-23T13:07:18.844Z,47.03
2023-10-23T13:09:45.750Z,46.27
2023-10-23T13:12:12.389Z,39.40
2023-10-23T13:14:39.445Z,36.93
2023-10-23T13:17:05.921Z,48.30
2023-10-23T13:19:32.470Z,41.37
2023-10-23T13:21:59.040Z,42.97
2023-10-23T13:24:25.522Z,45.00
2023-10-23T13:26:52.218Z,48.97
2023-10-23T13:29:18.666Z,51.03
2023-10-23T13:31:49.449Z,52.53
2023-10-23T13:34:16.942Z,52.33
2023-10-23T13:36:43.418Z,46.03
2023-10-23T13:39:11.023Z,44.77
2023-10-23T13:41:37.492Z,40.10
2023-10-23T13:44:04.566Z,37.40
2023-10-23T13:46:31.072Z,39.97
2023-10-23T13:48:58.137Z,43.17
2023-10-23T13:51:24.621Z,40.33
2023-10-23T13:53:53.946Z,45.67
2023-10-23T13:56:20.347Z,37.73
2023-10-23T13:58:47.917Z,42.63
2023-10-23T14:01:15.108Z,41.60
2023-10-23T14:03:41.844Z,42.80
2023-10-23T14:06:11.268Z,38.60
2023-10-23T14:09:40.369Z,37.37
2023-10-23T14:11:59.822Z,45.80
2023-10-23T14:14:16.116Z,38.33
2023-10-23T14:16:42.822Z,37.63
2023-10-23T14:19:09.219Z,40.13
2023-10-23T14:21:35.688Z,44.03
2023-10-23T14:24:02.009Z,37.40
2023-10-23T14:26:28.458Z,32.07
2023-10-23T14:28:56.995Z,35.60
2023-10-23T14:31:23.504Z,39.43
2023-10-23T14:33:49.913Z,31.33
2023-10-23T14:36:16.423Z,28.83
2023-10-23T14:38:44.051Z,32.07
2023-10-23T14:41:10.380Z,36.77
2023-10-23T14:43:37.301Z,37.93
2023-10-23T14:46:03.817Z,37.50
2023-10-23T14:48:31.401Z,38.10
2023-10-23T14:50:58.212Z,34.03
2023-10-23T14:53:27.775Z,40.43
2023-10-23T14:55:54.339Z,32.30
2023-10-23T14:58:21.247Z,33.30
2023-10-23T15:00:47.666Z,37.13
2023-10-23T15:03:14.063Z,40.03
2023-10-23T15:05:40.668Z,40.23
2023-10-23T15:08:08.068Z,33.13
2023-10-23T15:10:38.824Z,36.83
2023-10-23T15:13:05.616Z,31.30
2023-10-23T15:15:33.218Z,43.40
2023-10-23T15:17:59.627Z,34.30
2023-10-23T15:20:30.821Z,44.73
2023-10-23T15:23:01.174Z,39.73
2023-10-23T15:25:27.957Z,46.60
2023-10-23T15:27:54.492Z,39.27
2023-10-23T15:30:20.859Z,40.57
2023-10-23T15:32:47.300Z,46.50
2023-10-23T15:35:15.978Z,33.87
2023-10-23T15:37:44.115Z,34.77
2023-10-23T15:40:10.722Z,35.50
2023-10-23T15:42:37.250Z,42.13
2023-10-23T15:45:03.754Z,45.60
2023-10-23T15:47:30.077Z,40.63
2023-10-23T15:49:56.704Z,37.70
2023-10-23T15:52:23.287Z,35.30
2023-10-23T15:54:49.725Z,38.53
2023-10-23T15:57:16.358Z,36.63
2023-10-23T15:59:42.922Z,31.90
2023-10-23T16:02:11.725Z,28.73
2023-10-23T16:04:38.925Z,31.97
2023-10-23T16:07:05.596Z,35.03
2023-10-23T16:09:31.968Z,38.33
2023-10-23T16:12:10.058Z,30.03
2023-10-23T16:14:49.809Z,26.87
2023-10-23T16:17:17.737Z,31.07
2023-10-23T16:19:47.969Z,33.47
2023-10-23T16:22:14.316Z,33.20
2023-10-23T16:24:40.973Z,26.70
2023-10-23T16:27:07.637Z,25.63
2023-10-23T16:29:34.155Z,37.80
2023-10-23T16:32:00.688Z,31.53
2023-10-23T16:34:27.205Z,29.17
2023-10-23T16:36:53.649Z,31.93
2023-10-23T16:39:20.330Z,27.00
2023-10-23T16:41:48.597Z,30.63
2023-10-23T16:44:15.167Z,30.27
2023-10-23T16:46:41.975Z,29.47
2023-10-23T16:49:10.919Z,34.63
2023-10-23T16:51:37.313Z,34.50
2023-10-23T16:54:04.991Z,32.13
2023-10-23T16:56:31.420Z,32.93
2023-10-23T16:58:58.204Z,35.73
2023-10-23T17:01:25.021Z,34.20
2023-10-23T17:03:51.497Z,32.77
2023-10-23T17:06:18.998Z,27.47
2023-10-23T17:08:45.461Z,37.97
2023-10-23T17:11:14.503Z,33.57
2023-10-23T17:13:41.813Z,29.20
2023-10-23T17:16:12.079Z,30.27
2023-10-23T17:18:41.011Z,30.43
2023-10-23T17:21:07.347Z,27.47
2023-10-23T17:23:35.091Z,28.93
2023-10-23T17:26:02.015Z,33.80
2023-10-23T17:28:28.440Z,28.67
2023-10-23T17:30:56.453Z,28.47
2023-10-23T17:33:27.074Z,27.97
2023-10-23T17:35:53.973Z,31.33
2023-10-23T17:38:21.734Z,32.00
2023-10-23T17:40:48.491Z,33.77
2023-10-23T17:43:17.679Z,33.43
2023-10-23T17:45:44.533Z,30.27
2023-10-23T17:48:11.300Z,32.30
2023-10-23T17:50:38.176Z,32.10
2023-10-23T17:53:05.088Z,30.40
2023-10-23T17:55:33.651Z,34.90
2023-10-23T17:58:00.221Z,28.73
2023-10-23T18:00:26.860Z,32.03
2023-10-23T18:02:54.834Z,29.03
2023-10-23T18:05:21.705Z,28.23
2023-10-23T18:07:48.220Z,30.60
2023-10-23T18:10:17.331Z,27.73
2023-10-23T18:12:43.920Z,32.13
2023-10-23T18:15:11.708Z,26.27
2023-10-23T18:17:38.039Z,25.20
2023-10-23T18:20:05.086Z,25.73
2023-10-23T18:22:33.682Z,23.80
2023-10-23T18:25:00.060Z,28.20
2023-10-23T18:27:26.657Z,23.53
2023-10-23T18:29:55.405Z,28.50
2023-10-23T18:32:21.861Z,28.80
2023-10-23T18:34:48.818Z,30.13
2023-10-23T18:37:15.271Z,29.83
2023-10-23T18:39:41.807Z,26.90
2023-10-23T18:42:08.698Z,29.40
2023-10-23T18:44:35.537Z,37.37
2023-10-23T18:47:05.889Z,29.30
2023-10-23T18:49:32.325Z,28.87
2023-10-23T18:51:58.976Z,29.57
2023-10-23T18:54:25.323Z,31.40
2023-10-23T18:56:51.890Z,30.97
2023-10-23T18:59:18.421Z,29.30
2023-10-23T19:01:44.891Z,28.50
2023-10-23T19:04:11.325Z,29.77
2023-10-23T19:06:39.836Z,27.77
2023-10-23T19:09:06.360Z,31.33
2023-10-23T19:11:32.689Z,27.50
2023-10-23T19:13:59.074Z,29.23
2023-10-23T19:16:25.520Z,32.37
2023-10-23T19:18:51.909Z,25.27
2023-10-23T19:21:18.272Z,26.93
2023-10-23T19:23:45.877Z,30.17
2023-10-23T19:26:12.724Z,26.47
2023-10-23T19:28:39.248Z,24.57
2023-10-23T19:31:13.480Z,30.00
2023-10-23T19:33:41.842Z,28.57
2023-10-23T19:36:08.757Z,24.43
2023-10-23T19:38:35.195Z,26.47
2023-10-23T19:41:03.874Z,28.83
2023-10-23T19:43:33.946Z,27.53
2023-10-23T19:46:02.624Z,30.37
2023-10-23T19:48:29.350Z,31.57
2023-10-23T19:50:59.222Z,30.50
2023-10-23T19:53:25.589Z,28.23
2023-10-23T19:55:54.590Z,29.47
2023-10-23T19:58:22.273Z,30.13
2023-10-23T20:00:48.866Z,30.03
2023-10-23T20:03:15.592Z,25.47
2023-10-23T20:05:42.018Z,25.53
2023-10-23T20:08:08.437Z,28.67
2023-10-23T20:10:35.245Z,32.53
2023-10-23T20:13:01.788Z,32.67
2023-10-23T20:15:30.184Z,30.27
2023-10-23T20:17:56.986Z,30.70
2023-10-23T20:20:23.712Z,30.50
2023-10-23T20:22:50.700Z,29.77
2023-10-23T20:25:17.889Z,28.43
2023-10-23T20:27:44.859Z,27.40
2023-10-23T20:30:12.168Z,27.73
2023-10-23T20:32:38.743Z,32.17
2023-10-23T20:35:05.847Z,31.33
2023-10-23T20:37:33.178Z,30.53
2023-10-23T20:40:01.765Z,29.23
2023-10-23T20:42:33.486Z,24.50
2023-10-23T20:45:00.917Z,26.20
2023-10-23T20:47:27.503Z,27.07
2023-10-23T20:49:54.022Z,25.00
2023-10-23T20:52:20.393Z,25.13
2023-10-23T20:54:46.885Z,29.17
2023-10-23T20:57:13.428Z,29.57
2023-10-23T20:59:40.771Z,24.57
2023-10-23T21:02:07.409Z,26.83
2023-10-23T21:04:34.990Z,23.17
2023-10-23T21:07:01.607Z,26.47
2023-10-23T21:09:28.351Z,26.83
2023-10-23T21:11:55.063Z,23.93
2023-10-23T21:14:24.468Z,26.17
2023-10-23T21:16:53.187Z,26.10
2023-10-23T21:19:21.376Z,26.90
2023-10-23T21:21:48.218Z,27.83
2023-10-23T21:24:15.015Z,23.93
2023-10-23T21:26:41.559Z,25.77
2023-10-23T21:29:18.930Z,24.97
2023-10-23T21:31:46.017Z,24.13
2023-10-23T21:34:12.516Z,21.70
2023-10-23T21:36:39.985Z,22.37
2023-10-23T21:39:07.134Z,23.97
2023-10-23T21:41:33.757Z,23.73
2023-10-23T21:44:00.113Z,21.60
2023-10-23T21:46:26.597Z,21.80
2023-10-23T21:48:53.004Z,26.13
2023-10-23T21:51:19.465Z,20.43
2023-10-23T21:53:46.021Z,22.07
2023-10-23T21:56:19.113Z,23.13
2023-10-23T21:59:12.712Z,23.87
2023-10-23T22:01:40.760Z,22.03
2023-10-23T22:04:08.304Z,21.07
2023-10-23T22:06:34.796Z,23.93
2023-10-23T22:09:01.368Z,26.77
2023-10-23T22:11:28.060Z,24.70
2023-10-23T22:13:54.609Z,25.37
2023-10-23T22:16:22.405Z,24.37
2023-10-23T22:18:51.422Z,23.30
2023-10-23T22:21:18.072Z,25.40
2023-10-23T22:23:44.782Z,23.07
2023-10-23T22:26:11.228Z,18.20
2023-10-23T22:28:37.983Z,18.20
2023-10-23T22:31:04.962Z,21.80
2023-10-23T22:33:32.226Z,17.10
2023-10-23T22:35:58.757Z,22.83
2023-10-23T22:38:25.087Z,26.33
2023-10-23T22:40:52.337Z,20.17
2023-10-23T22:43:18.780Z,19.43
2023-10-23T22:45:59.198Z,21.00
2023-10-23T22:48:28.472Z,23.00
2023-10-23T22:50:55.066Z,22.17
2023-10-23T22:53:22.799Z,21.80
2023-10-23T22:55:50.980Z,21.17
2023-10-23T22:58:18.148Z,17.70
2023-10-23T23:00:46.038Z,20.90
2023-10-23T23:03:12.693Z,16.57
2023-10-23T23:05:41.410Z,19.73
2023-10-23T23:08:09.589Z,21.33
2023-10-23T23:10:36.511Z,18.87
2023-10-23T23:13:03.142Z,18.50
2023-10-23T23:15:29.684Z,19.80
2023-10-23T23:17:56.754Z,17.57
2023-10-23T23:20:24.004Z,17.73
2023-10-23T23:22:50.492Z,20.93
2023-10-23T23:25:17.978Z,15.60
2023-10-23T23:27:44.416Z,15.60
2023-10-23T23:30:10.937Z,16.43
2023-10-23T23:32:37.528Z,15.47
2023-10-23T23:35:04.100Z,14.57
2023-10-23T23:37:30.495Z,15.90
2023-10-23T23:39:57.093Z,15.50
2023-10-23T23:42:23.590Z,15.00
2023-10-23T23:44:49.987Z,14.73
2023-10-23T23:47:16.342Z,17.33
2023-10-23T23:49:45.031Z,15.87
2023-10-23T23:52:11.495Z,17.00
2023-10-23T23:54:37.947Z,15.33
2023-10-23T23:57:04.743Z,15.83
2023-10-23T23:59:31.187Z,18.03
